• Join FlightAware (Why Join?)
  • Login
  • US Flag 
04:40AM EDT


 

Airport Tracker/Info


-or-


 

Live Flight TrackerFlight Track Log ✈ AWI3551 ✈ 20-Jun-2013 ✈ KBUF - KPHL

Flight Track Log - Related Links

Times and Time Zones

All times are in EDT time to prevent confusion due to time zone crossing. See the AWI3551 flight status page for this flight to view local times or setup timezone preferences in your user account.

Time Position Orientation Groundspeed Altitude Reporting Facility
EDT Latitude Longitude Course Direction KTS MPH feet Rate Location/Type
05:33AM 42.9333 -78.7500 174° South 171 197 1,700  Level Buffalo TRACON
05:34AM 42.8833 -78.7833 206° Southwest 196 226 4,000 2,520 Climbing Buffalo TRACON
05:35AM 42.8333 -78.7833 180° South 220 253 6,800 2,280 Climbing Buffalo TRACON
05:36AM 42.6178 -78.6835 172° South  Level FlightAware Approximate
05:36AM 42.7650 -78.7703 172° South 234 269 8,700  Level Cleveland Center
05:37AM 42.5131 -78.6633 173° South  Level FlightAware Approximate
05:37AM 42.6853 -78.7500 169° South 250 288 10,900  Level Cleveland Center
05:38AM 42.4078 -78.6500 180° South  Level FlightAware Approximate
05:38AM 42.5997 -78.7300 170° South 284 327 13,200  Level Cleveland Center
05:39AM 42.3024 -78.6408 174° South  Level FlightAware Approximate
05:39AM 42.5075 -78.7103 171° South 317 365 15,700  Level Cleveland Center
05:40AM 42.4133 -78.6878 170° South 340 391 17,800 2,100 Climbing Cleveland Center
05:41AM 42.3150 -78.6653 170° South 353 406 19,900 1,560 Climbing Cleveland Center
05:42AM 42.2147 -78.6458 172° South 358 412 21,000 540 Climbing Cleveland Center
05:43AM 42.1206 -78.6292 173° South 371 427 21,000  Level Cleveland Center
05:44AM 42.0183 -78.6239 178° South 377 434 21,000  Level Cleveland Center
05:45AM 41.9183 -78.6242 180° South 377 434 21,000  Level Cleveland Center
05:46AM 41.8181 -78.6217 179° South 371 427 21,000  Level Cleveland Center
05:47AM 41.7214 -78.5744 160° South 361 415 21,000  Level Cleveland Center
05:48AM 41.6286 -78.5081 152° Southeast 368 423 21,000  Level Cleveland Center
05:49AM 41.5378 -78.4417 151° Southeast 378 435 21,000  Level Cleveland Center
05:50AM 41.4447 -78.3725 151° Southeast 383 441 21,000  Level Cleveland Center
05:52AM 41.3133 -78.2764 151° Southeast 367 422 21,000  Level New York Center
05:53AM 41.2194 -78.2108 152° Southeast 367 422 21,000  Level New York Center
05:54AM 41.1258 -78.1425 151° Southeast 379 436 21,000  Level New York Center
05:55AM 41.0319 -78.0775 152° Southeast 379 436 21,000  Level New York Center
05:56AM 40.9400 -78.0125 152° Southeast 379 436 21,000 -60 Level New York Center
05:57AM 40.8644 -77.9167 136° Southeast 379 436 20,900 -600 Descending New York Center
05:58AM 40.7939 -77.8078 131° Southeast 378 435 19,900 -1,020 Descending New York Center
05:59AM 40.7250 -77.7050 131° Southeast 378 435 18,900 -960 Descending New York Center
06:00AM 40.6561 -77.5967 130° Southeast 378 435 18,000 -480 Descending New York Center
06:01AM 40.5792 -77.4853 132° Southeast 371 427 18,000  Level New York Center
06:02AM 40.5175 -77.3944 132° Southeast 371 427 18,000  Level New York Center
06:03AM 40.4664 -77.2642 117° Southeast 371 427 18,000  Level New York Center
06:04AM 40.4372 -77.1494 108° East 366 421 18,000  Level New York Center
06:05AM 40.4031 -77.0072 107° East 374 430 18,000  Level New York Center
06:06AM 40.3719 -76.8872 109° East 374 430 18,000  Level New York Center
06:07AM 40.3408 -76.7592 108° East 374 430 18,000  Level New York Center
06:08AM 40.3044 -76.6144 108° East 374 430 18,000 -480 Level New York Center
06:09AM 40.2731 -76.4894 108° East 374 430 17,100 -1,320 Descending New York Center
06:10AM 40.2433 -76.3672 108° East 362 417 15,400 -1,620 Descending New York Center
06:11AM 40.2169 -76.2672 109° East 339 390 13,900 -1,620 Descending New York Center
06:12AM 40.1850 -76.1453 109° East 332 382 12,200 -1,500 Descending New York Center
06:13AM 40.1567 -76.0344 108° East 327 376 10,900 -1,380 Descending New York Center
06:14AM 40.1300 -75.9292 108° East 316 364 9,600 -1,320 Descending New York Center
06:15AM 40.1094 -75.8272 105° East 303 349 8,300 -840 Descending New York Center
06:16AM 40.1214 -75.7383 80° East 282 325 8,000 -180 Descending New York Center
06:17AM 40.1344 -75.6253 81° East 277 319 8,000  Level New York Center
06:18AM 40.1422 -75.5417 83° East 271 312 8,000  Level New York Center
06:19AM 40.1544 -75.4447 81° East 250 288 8,000  Level New York Center
06:20AM 40.1656 -75.3694 79° East 240 276 8,000  Level New York Center
06:21AM 40.1586 -75.2794 96° East 226 260 8,000 -600 Level New York Center
06:22AM 40.1167 -75.2500 152° Southeast 244 281 7,000 -1,140 Descending Philadelphia TRACON
06:23AM 40.0500 -75.2167 159° South 232 267 6,000 -900 Descending Philadelphia TRACON
06:24AM 40.0000 -75.1833 153° Southeast 200 230 5,200 -960 Descending Philadelphia TRACON
06:25AM 39.9500 -75.1667 166° South 208 239 4,100 -600 Descending Philadelphia TRACON
06:26AM 39.8833 -75.1500 169° South 206 237 4,000 -60 Descending Philadelphia TRACON
06:27AM 39.8333 -75.1333 166° South 202 232 4,000  Level Philadelphia TRACON
06:28AM 39.7833 -75.1000 153° Southeast 202 232 4,000  Level Philadelphia TRACON
06:29AM 39.7500 -75.0500 131° Southeast 211 243 4,000 -120 Level Philadelphia TRACON
06:30AM 39.7000 -75.0167 153° Southeast 209 241 3,800 -480 Descending Philadelphia TRACON
06:31AM 39.6833 -75.0833 252° West 191 220 3,100 -780 Descending Philadelphia TRACON